createdAt,value
2023-05-06T00:00:42.002Z,48.44
2023-05-06T00:01:41.959Z,48.47
2023-05-06T00:02:42.070Z,48.39
2023-05-06T00:03:42.256Z,48.53
2023-05-06T00:04:41.965Z,48.44
2023-05-06T00:05:41.910Z,48.47
2023-05-06T00:06:41.958Z,48.33
2023-05-06T00:07:42.009Z,48.31
2023-05-06T00:08:41.930Z,48.22
2023-05-06T00:09:41.884Z,48.22
2023-05-06T00:10:41.958Z,48.08
2023-05-06T00:11:41.910Z,48.22
2023-05-06T00:12:41.854Z,48.33
2023-05-06T00:13:41.869Z,48.47
2023-05-06T00:14:41.894Z,48.72
2023-05-06T00:15:41.841Z,48.90
2023-05-06T00:16:41.962Z,49.01
2023-05-06T00:17:41.811Z,49.01
2023-05-06T00:18:41.792Z,49.35
2023-05-06T00:19:41.772Z,49.21
2023-05-06T00:20:41.830Z,49.50
2023-05-06T00:21:41.790Z,49.53
2023-05-06T00:22:41.743Z,49.62
2023-05-06T00:23:41.767Z,49.65
2023-05-06T00:24:41.738Z,49.88
2023-05-06T00:25:41.807Z,50.00
2023-05-06T00:26:41.768Z,49.91
2023-05-06T00:27:41.717Z,49.73
2023-05-06T00:28:41.772Z,49.85
2023-05-06T00:29:41.806Z,50.24
2023-05-06T00:30:41.734Z,50.00
2023-05-06T00:31:41.792Z,50.15
2023-05-06T00:32:41.827Z,50.12
2023-05-06T00:33:41.664Z,50.06
2023-05-06T00:34:41.653Z,49.94
2023-05-06T00:35:41.665Z,49.76
2023-05-06T00:36:41.599Z,50.09
2023-05-06T00:37:41.605Z,50.24
2023-05-06T00:38:41.579Z,50.18
2023-05-06T00:39:41.611Z,50.33
2023-05-06T00:40:41.586Z,50.30
2023-05-06T00:41:41.535Z,50.36
2023-05-06T00:42:41.550Z,50.33
2023-05-06T00:43:41.639Z,50.42
2023-05-06T00:44:41.515Z,50.60
2023-05-06T00:45:41.523Z,50.66
2023-05-06T00:46:41.521Z,50.51
2023-05-06T00:47:41.506Z,50.30
2023-05-06T00:48:41.470Z,50.30
2023-05-06T00:49:41.496Z,50.33
2023-05-06T00:50:41.481Z,50.27
2023-05-06T00:51:41.451Z,50.03
2023-05-06T00:52:41.462Z,50.09
2023-05-06T00:53:41.466Z,50.03
2023-05-06T00:54:41.393Z,50.48
2023-05-06T00:55:41.418Z,49.97
2023-05-06T00:56:41.404Z,50.15
2023-05-06T00:57:41.377Z,50.24
2023-05-06T00:58:41.370Z,50.39
2023-05-06T00:59:41.345Z,50.63
2023-05-06T01:00:41.375Z,50.48
2023-05-06T01:01:41.417Z,50.18
2023-05-06T01:02:47.151Z,50.45
2023-05-06T01:03:41.513Z,50.24
2023-05-06T01:04:41.356Z,50.48
2023-05-06T01:05:41.316Z,50.54
2023-05-06T01:06:41.315Z,50.66
2023-05-06T01:07:41.334Z,50.60
2023-05-06T01:08:41.280Z,50.72
2023-05-06T01:09:41.265Z,50.97
2023-05-06T01:10:41.258Z,50.91
2023-05-06T01:11:41.257Z,50.66
2023-05-06T01:12:41.264Z,51.66
2023-05-06T01:13:41.212Z,51.38
2023-05-06T01:14:41.317Z,51.22
2023-05-06T01:15:41.217Z,51.41
2023-05-06T01:16:41.238Z,51.09
2023-05-06T01:17:41.206Z,51.03
2023-05-06T01:18:41.210Z,50.97
2023-05-06T01:19:41.157Z,51.31
2023-05-06T01:20:41.157Z,51.56
2023-05-06T01:21:41.163Z,51.38
2023-05-06T01:22:41.129Z,51.66
2023-05-06T01:23:41.119Z,51.41
2023-05-06T01:24:41.101Z,51.82
2023-05-06T01:25:41.143Z,51.72
2023-05-06T01:26:41.080Z,51.60
2023-05-06T01:27:41.069Z,51.66
2023-05-06T01:28:41.064Z,51.79
2023-05-06T01:29:41.073Z,51.50
2023-05-06T01:30:41.089Z,51.85
2023-05-06T01:31:41.249Z,51.82
2023-05-06T01:32:41.074Z,51.85
2023-05-06T01:33:41.002Z,51.85
2023-05-06T01:34:40.992Z,52.01
2023-05-06T01:35:41.062Z,51.69
2023-05-06T01:36:40.992Z,52.24
2023-05-06T01:37:40.998Z,51.95
2023-05-06T01:38:40.940Z,52.20
2023-05-06T01:39:41.028Z,52.20
2023-05-06T01:40:40.926Z,52.43
2023-05-06T01:41:40.935Z,52.17
2023-05-06T01:42:40.935Z,52.60
2023-05-06T01:43:40.936Z,52.47
2023-05-06T01:44:40.897Z,52.47
2023-05-06T01:45:40.866Z,52.40
2023-05-06T01:46:41.217Z,52.17
2023-05-06T01:47:40.961Z,52.43
2023-05-06T01:48:40.855Z,52.76
2023-05-06T01:49:40.858Z,52.86
2023-05-06T01:50:40.855Z,52.83
2023-05-06T01:51:40.856Z,52.56
2023-05-06T01:52:40.967Z,52.66
2023-05-06T01:53:40.830Z,52.53
2023-05-06T01:54:40.821Z,52.30
2023-05-06T01:55:40.760Z,52.27
2023-05-06T01:56:40.798Z,52.43
2023-05-06T01:57:40.763Z,52.37
2023-05-06T01:58:40.768Z,52.66
2023-05-06T01:59:40.773Z,52.76
2023-05-06T02:00:40.729Z,52.76
2023-05-06T02:01:40.737Z,52.99
2023-05-06T02:02:40.782Z,52.69
2023-05-06T02:03:40.833Z,52.93
2023-05-06T02:04:40.706Z,53.10
2023-05-06T02:05:40.673Z,52.89
2023-05-06T02:06:40.691Z,52.99
2023-05-06T02:07:40.675Z,53.06
2023-05-06T02:08:40.735Z,53.03
2023-05-06T02:09:40.636Z,53.16
2023-05-06T02:10:40.646Z,53.26
2023-05-06T02:11:40.659Z,53.36
2023-05-06T02:12:40.627Z,53.03
2023-05-06T02:13:40.612Z,53.53
2023-05-06T02:14:40.596Z,53.50
2023-05-06T02:15:40.561Z,54.29
2023-05-06T02:16:40.648Z,54.65
2023-05-06T02:17:40.599Z,55.01
2023-05-06T02:18:40.536Z,55.48
2023-05-06T02:19:40.600Z,55.81
2023-05-06T02:20:40.519Z,55.74
2023-05-06T02:21:40.563Z,55.77
2023-05-06T02:22:40.508Z,55.99
2023-05-06T02:23:40.490Z,56.18
2023-05-06T02:24:40.497Z,56.67
2023-05-06T02:25:40.486Z,56.90
2023-05-06T02:26:40.513Z,57.10
2023-05-06T02:27:40.492Z,57.21
2023-05-06T02:28:40.452Z,57.45
2023-05-06T02:29:40.450Z,57.76
2023-05-06T02:30:40.439Z,58.00
2023-05-06T02:31:40.495Z,58.41
2023-05-06T02:32:40.440Z,58.45
2023-05-06T02:33:40.392Z,58.49
2023-05-06T02:34:40.381Z,58.33
2023-05-06T02:35:40.382Z,58.17
2023-05-06T02:36:40.347Z,58.24
2023-05-06T02:37:40.375Z,58.49
2023-05-06T02:38:40.362Z,58.29
2023-05-06T02:39:40.325Z,58.33
2023-05-06T02:40:40.321Z,58.12
2023-05-06T02:41:40.334Z,58.00
2023-05-06T02:42:40.336Z,58.08
2023-05-06T02:43:40.303Z,57.96
2023-05-06T02:44:40.304Z,58.00
2023-05-06T02:45:40.338Z,58.49
2023-05-06T02:46:40.239Z,58.94
2023-05-06T02:47:40.322Z,58.86
2023-05-06T02:48:40.227Z,58.90
2023-05-06T02:49:40.255Z,59.23
2023-05-06T02:50:40.344Z,59.15
2023-05-06T02:51:40.224Z,59.19
2023-05-06T02:52:40.205Z,59.27
2023-05-06T02:53:40.158Z,59.40
2023-05-06T02:54:40.152Z,59.31
2023-05-06T02:55:40.189Z,59.44
2023-05-06T02:56:40.146Z,59.52
2023-05-06T02:57:40.158Z,59.23
2023-05-06T02:58:40.105Z,59.15
2023-05-06T02:59:40.118Z,58.82
2023-05-06T03:00:40.091Z,58.57
2023-05-06T03:01:40.229Z,58.53
2023-05-06T03:02:40.122Z,58.17
2023-05-06T03:03:40.146Z,58.00
2023-05-06T03:04:40.385Z,57.61
2023-05-06T03:05:40.091Z,57.57
2023-05-06T03:06:40.048Z,57.37
2023-05-06T03:07:40.069Z,57.25
2023-05-06T03:08:40.010Z,57.33
2023-05-06T03:09:40.044Z,57.02
2023-05-06T03:10:39.983Z,57.84
2023-05-06T03:11:39.975Z,57.69
2023-05-06T03:12:40.061Z,57.61
2023-05-06T03:13:40.023Z,57.84
2023-05-06T03:14:40.086Z,57.81
2023-05-06T03:15:39.973Z,57.61
2023-05-06T03:16:40.006Z,57.76
2023-05-06T03:17:39.914Z,57.92
2023-05-06T03:18:39.992Z,58.49
2023-05-06T03:19:39.923Z,58.45
2023-05-06T03:20:39.901Z,58.49
2023-05-06T03:21:39.924Z,58.65
2023-05-06T03:22:39.995Z,58.33
2023-05-06T03:23:39.849Z,58.41
2023-05-06T03:24:39.900Z,58.29
2023-05-06T03:25:39.896Z,58.17
2023-05-06T03:26:39.823Z,58.49
2023-05-06T03:27:39.847Z,58.65
2023-05-06T03:28:39.824Z,58.69
2023-05-06T03:29:39.818Z,58.65
2023-05-06T03:30:39.782Z,58.24
2023-05-06T03:31:39.892Z,58.53
2023-05-06T03:32:39.788Z,58.53
2023-05-06T03:33:39.786Z,58.37
2023-05-06T03:34:39.728Z,58.41
2023-05-06T03:35:39.810Z,58.69
2023-05-06T03:36:39.769Z,58.61
2023-05-06T03:37:39.703Z,58.78
2023-05-06T03:38:39.690Z,58.98
2023-05-06T03:39:39.711Z,58.98
2023-05-06T03:40:39.706Z,58.90
2023-05-06T03:41:39.727Z,58.45
2023-05-06T03:42:39.686Z,58.98
2023-05-06T03:43:39.652Z,58.57
2023-05-06T03:44:39.657Z,58.94
2023-05-06T03:45:39.623Z,58.90
2023-05-06T03:46:39.798Z,58.94
2023-05-06T03:47:39.741Z,59.36
2023-05-06T03:48:39.581Z,59.27
2023-05-06T03:49:39.579Z,59.52
2023-05-06T03:50:39.575Z,59.91
2023-05-06T03:51:39.575Z,60.12
2023-05-06T03:52:39.583Z,60.25
2023-05-06T03:53:39.559Z,60.08
2023-05-06T03:54:39.549Z,59.82
2023-05-06T03:55:39.524Z,59.82
2023-05-06T03:56:39.515Z,60.60
2023-05-06T03:57:39.530Z,60.60
2023-05-06T03:58:39.525Z,60.86
2023-05-06T03:59:39.479Z,60.86
2023-05-06T04:00:39.538Z,60.60
2023-05-06T04:01:39.539Z,60.47
2023-05-06T04:02:39.502Z,60.29
2023-05-06T04:03:39.593Z,60.42
2023-05-06T04:04:39.496Z,60.51
2023-05-06T04:05:39.484Z,60.64
2023-05-06T04:06:39.409Z,60.95
2023-05-06T04:07:39.400Z,60.95
2023-05-06T04:08:39.401Z,61.57
2023-05-06T04:09:39.419Z,61.44
2023-05-06T04:10:39.389Z,61.35
2023-05-06T04:11:39.394Z,61.53
2023-05-06T04:12:39.382Z,61.26
2023-05-06T04:13:39.400Z,61.30
2023-05-06T04:14:39.331Z,61.12
2023-05-06T04:15:39.447Z,61.26
2023-05-06T04:16:39.462Z,61.30
2023-05-06T04:17:39.308Z,61.04
2023-05-06T04:18:39.274Z,60.90
2023-05-06T04:19:39.294Z,61.12
2023-05-06T04:20:39.258Z,61.21
2023-05-06T04:21:39.322Z,61.08
2023-05-06T04:22:39.244Z,61.04
2023-05-06T04:23:39.212Z,60.55
2023-05-06T04:24:39.286Z,60.33
2023-05-06T04:25:39.209Z,60.42
2023-05-06T04:26:39.203Z,60.51
2023-05-06T04:27:39.261Z,60.33
2023-05-06T04:28:39.159Z,60.38
2023-05-06T04:29:39.201Z,60.60
2023-05-06T04:30:39.161Z,60.60
2023-05-06T04:31:39.246Z,60.68
2023-05-06T04:32:39.156Z,60.68
2023-05-06T04:33:39.143Z,60.99
2023-05-06T04:34:39.143Z,60.82
2023-05-06T04:35:39.105Z,61.04
2023-05-06T04:36:40.712Z,61.04
2023-05-06T04:37:39.111Z,61.04
2023-05-06T04:38:39.100Z,60.73
2023-05-06T04:39:39.049Z,60.60
2023-05-06T04:40:39.117Z,60.42
2023-05-06T04:41:39.190Z,60.82
2023-05-06T04:42:39.058Z,61.12
2023-05-06T04:43:39.024Z,60.95
2023-05-06T04:44:39.106Z,60.64
2023-05-06T04:45:39.055Z,60.86
2023-05-06T04:46:39.053Z,61.08
2023-05-06T04:47:39.108Z,60.95
2023-05-06T04:48:38.999Z,60.86
2023-05-06T04:49:38.955Z,60.99
2023-05-06T04:50:38.976Z,61.30
2023-05-06T04:51:38.986Z,61.08
2023-05-06T04:52:38.938Z,61.48
2023-05-06T04:53:38.979Z,61.48
2023-05-06T04:54:38.913Z,61.48
2023-05-06T04:55:38.945Z,61.35
2023-05-06T04:56:38.914Z,61.35
2023-05-06T04:57:38.888Z,61.57
2023-05-06T04:58:38.875Z,61.53
2023-05-06T04:59:38.865Z,61.89
2023-05-06T05:00:38.841Z,62.07
2023-05-06T05:01:38.956Z,61.53
2023-05-06T05:02:38.935Z,62.07
2023-05-06T05:03:38.836Z,61.48
2023-05-06T05:04:38.814Z,61.80
2023-05-06T05:05:38.805Z,61.85
2023-05-06T05:06:38.799Z,61.57
2023-05-06T05:07:38.850Z,61.98
2023-05-06T05:08:38.807Z,62.12
2023-05-06T05:09:38.754Z,62.17
2023-05-06T05:10:38.748Z,62.49
2023-05-06T05:11:38.780Z,62.35
2023-05-06T05:12:38.776Z,62.21
2023-05-06T05:13:38.740Z,62.63
2023-05-06T05:14:38.689Z,62.44
2023-05-06T05:15:38.699Z,62.53
2023-05-06T05:16:38.712Z,62.67
2023-05-06T05:17:38.721Z,62.67
2023-05-06T05:18:38.680Z,62.30
2023-05-06T05:19:38.708Z,62.03
2023-05-06T05:20:38.665Z,62.03
2023-05-06T05:21:38.702Z,62.07
2023-05-06T05:22:38.634Z,61.80
2023-05-06T05:23:38.660Z,61.21
2023-05-06T05:24:38.614Z,61.62
2023-05-06T05:25:38.638Z,61.71
2023-05-06T05:26:38.577Z,61.57
2023-05-06T05:27:38.580Z,61.44
2023-05-06T05:28:38.597Z,61.48
2023-05-06T05:29:38.552Z,61.39
2023-05-06T05:30:38.598Z,61.21
2023-05-06T05:31:38.614Z,61.30
2023-05-06T05:32:38.629Z,60.99
2023-05-06T05:33:38.543Z,60.68
2023-05-06T05:34:38.528Z,61.12
2023-05-06T05:35:38.530Z,61.21
2023-05-06T05:36:38.483Z,61.48
2023-05-06T05:37:38.458Z,61.62
2023-05-06T05:38:38.478Z,62.07
2023-05-06T05:39:38.554Z,62.30
2023-05-06T05:40:38.471Z,62.35
2023-05-06T05:41:38.436Z,62.12
2023-05-06T05:42:38.438Z,61.66
2023-05-06T05:43:38.400Z,61.39
2023-05-06T05:44:38.421Z,61.57
2023-05-06T05:45:38.375Z,61.17
2023-05-06T05:46:38.416Z,61.35
2023-05-06T05:47:38.451Z,61.17
2023-05-06T05:48:38.375Z,60.68
2023-05-06T05:49:38.355Z,60.68
2023-05-06T05:50:38.329Z,60.21
2023-05-06T05:51:38.331Z,60.29
2023-05-06T05:52:38.322Z,59.78
2023-05-06T05:53:38.313Z,59.69
2023-05-06T05:54:38.286Z,59.78
2023-05-06T05:55:38.283Z,59.69
2023-05-06T05:56:38.288Z,60.16
2023-05-06T05:57:38.273Z,59.82
2023-05-06T05:58:38.256Z,59.86
2023-05-06T05:59:38.413Z,59.91
2023-05-06T06:00:38.273Z,60.16
2023-05-06T06:01:38.216Z,59.91
2023-05-06T06:02:38.250Z,59.61
2023-05-06T06:03:38.355Z,59.44
2023-05-06T06:04:38.285Z,59.40
2023-05-06T06:05:38.201Z,59.15
2023-05-06T06:06:38.162Z,59.02
2023-05-06T06:07:38.156Z,58.86
2023-05-06T06:08:38.170Z,58.57
2023-05-06T06:09:38.172Z,58.69
2023-05-06T06:10:38.134Z,58.65
2023-05-06T06:11:38.127Z,58.65
2023-05-06T06:12:38.186Z,58.69
2023-05-06T06:13:38.100Z,58.82
2023-05-06T06:14:38.109Z,58.69
2023-05-06T06:15:38.076Z,58.65
2023-05-06T06:16:38.269Z,58.37
2023-05-06T06:17:38.096Z,58.12
2023-05-06T06:18:38.062Z,57.92
2023-05-06T06:19:38.023Z,57.29
2023-05-06T06:20:38.048Z,57.29
2023-05-06T06:21:38.008Z,56.64
2023-05-06T06:22:37.995Z,56.83
2023-05-06T06:23:38.012Z,56.98
2023-05-06T06:24:37.977Z,56.67
2023-05-06T06:25:37.962Z,56.71
2023-05-06T06:26:37.989Z,56.52
2023-05-06T06:27:37.961Z,56.67
2023-05-06T06:28:37.977Z,56.37
2023-05-06T06:29:37.944Z,56.71
2023-05-06T06:30:37.898Z,56.90
2023-05-06T06:31:40.338Z,56.83
2023-05-06T06:32:37.990Z,57.33
2023-05-06T06:33:37.913Z,56.90
2023-05-06T06:34:37.865Z,57.21
2023-05-06T06:35:37.859Z,57.29
2023-05-06T06:36:37.861Z,57.33
2023-05-06T06:37:37.915Z,57.72
2023-05-06T06:38:37.822Z,57.92
2023-05-06T06:39:37.827Z,57.45
2023-05-06T06:40:37.843Z,57.41
2023-05-06T06:41:37.815Z,57.21
2023-05-06T06:42:38.020Z,57.14
2023-05-06T06:43:37.776Z,56.79
2023-05-06T06:44:37.780Z,56.71
2023-05-06T06:45:37.780Z,56.22
2023-05-06T06:46:37.755Z,55.77
2023-05-06T06:47:37.772Z,55.62
2023-05-06T06:48:37.713Z,55.55
2023-05-06T06:49:37.721Z,55.48
2023-05-06T06:50:37.704Z,55.26
2023-05-06T06:51:37.739Z,54.97
2023-05-06T06:52:37.694Z,54.79
2023-05-06T06:53:37.701Z,54.58
2023-05-06T06:54:37.686Z,54.72
2023-05-06T06:55:37.669Z,54.76
2023-05-06T06:56:37.638Z,54.86
2023-05-06T06:57:37.647Z,55.01
2023-05-06T06:58:37.616Z,55.29
2023-05-06T06:59:37.629Z,55.33
2023-05-06T07:00:37.603Z,55.22
2023-05-06T07:01:37.756Z,55.11
2023-05-06T07:02:37.628Z,54.83
2023-05-06T07:03:37.578Z,54.97
2023-05-06T07:04:37.590Z,54.76
2023-05-06T07:05:37.594Z,54.79
2023-05-06T07:06:37.535Z,54.68
2023-05-06T07:07:37.527Z,54.72
2023-05-06T07:08:37.510Z,54.65
2023-05-06T07:09:39.530Z,54.76
2023-05-06T07:10:37.528Z,54.65
2023-05-06T07:11:37.504Z,54.90
2023-05-06T07:12:37.496Z,54.72
2023-05-06T07:13:37.448Z,54.76
2023-05-06T07:14:37.437Z,54.65
2023-05-06T07:15:37.445Z,54.68
2023-05-06T07:16:37.521Z,54.58
2023-05-06T07:17:37.463Z,54.22
2023-05-06T07:18:37.417Z,54.47
2023-05-06T07:19:37.391Z,54.51
2023-05-06T07:20:37.384Z,54.54
2023-05-06T07:21:37.422Z,54.61
2023-05-06T07:22:37.415Z,54.76
2023-05-06T07:23:37.350Z,54.68
2023-05-06T07:24:37.353Z,54.44
2023-05-06T07:25:37.364Z,54.47
2023-05-06T07:26:37.324Z,54.51
2023-05-06T07:27:37.346Z,54.51
2023-05-06T07:28:37.326Z,54.51
2023-05-06T07:29:37.303Z,54.29
2023-05-06T07:30:37.292Z,54.33
2023-05-06T07:31:37.378Z,54.29
2023-05-06T07:32:37.266Z,53.84
2023-05-06T07:33:37.272Z,53.26
2023-05-06T07:34:37.277Z,52.89
2023-05-06T07:35:37.264Z,52.63
2023-05-06T07:36:38.684Z,52.56
2023-05-06T07:37:37.198Z,52.11
2023-05-06T07:38:37.189Z,51.41
2023-05-06T07:39:37.218Z,51.09
2023-05-06T07:40:37.183Z,50.48
2023-05-06T07:41:37.167Z,50.06
2023-05-06T07:42:37.152Z,49.41
2023-05-06T07:43:37.152Z,49.30
2023-05-06T07:44:37.152Z,49.01
2023-05-06T07:45:37.172Z,48.98
2023-05-06T07:46:37.169Z,49.15
2023-05-06T07:47:37.160Z,49.12
2023-05-06T07:48:37.093Z,49.07
2023-05-06T07:49:37.149Z,48.47
2023-05-06T07:50:37.065Z,48.31
2023-05-06T07:51:37.081Z,47.73
2023-05-06T07:52:37.088Z,48.36
2023-05-06T07:53:37.056Z,48.90
2023-05-06T07:54:37.068Z,48.70
2023-05-06T07:55:37.073Z,48.78
2023-05-06T07:56:37.044Z,50.36
2023-05-06T07:57:36.996Z,50.36
2023-05-06T07:58:37.020Z,49.88
2023-05-06T07:59:36.977Z,49.21
2023-05-06T08:00:36.982Z,50.42
2023-05-06T08:01:36.970Z,50.60
2023-05-06T08:02:37.050Z,49.50
2023-05-06T08:03:37.086Z,48.70
2023-05-06T08:04:37.098Z,48.28
2023-05-06T08:05:36.931Z,49.47
2023-05-06T08:06:36.895Z,50.21
2023-05-06T08:07:36.891Z,49.76
2023-05-06T08:08:37.020Z,49.24
2023-05-06T08:09:36.865Z,48.81
2023-05-06T08:10:36.866Z,48.06
2023-05-06T08:11:36.868Z,48.22
2023-05-06T08:12:36.891Z,48.39
2023-05-06T08:13:36.872Z,48.03
2023-05-06T08:14:36.872Z,47.46
2023-05-06T08:15:36.802Z,47.54
2023-05-06T08:16:36.892Z,47.54
2023-05-06T08:17:36.815Z,47.17
2023-05-06T08:18:36.789Z,46.13
2023-05-06T08:19:36.789Z,46.75
2023-05-06T08:20:36.819Z,46.18
2023-05-06T08:21:36.772Z,46.75
2023-05-06T08:22:36.777Z,47.22
2023-05-06T08:23:36.780Z,46.34
2023-05-06T08:24:36.735Z,47.22
2023-05-06T08:25:36.778Z,47.54
2023-05-06T08:26:36.761Z,47.25
2023-05-06T08:27:36.696Z,47.78
2023-05-06T08:28:36.747Z,47.92
2023-05-06T08:29:36.673Z,47.30
2023-05-06T08:30:36.851Z,46.75
2023-05-06T08:31:36.731Z,46.75
2023-05-06T08:32:36.668Z,47.78
2023-05-06T08:33:36.621Z,47.11
2023-05-06T08:34:36.612Z,47.54
2023-05-06T08:35:36.625Z,46.90
2023-05-06T08:36:36.603Z,46.90
2023-05-06T08:37:36.605Z,49.97
2023-05-06T08:38:36.597Z,51.34
2023-05-06T08:39:36.582Z,51.66
2023-05-06T08:40:36.586Z,51.72
2023-05-06T08:41:36.536Z,51.22
2023-05-06T08:42:36.528Z,51.82
2023-05-06T08:43:36.553Z,51.16
2023-05-06T08:44:36.596Z,49.62
2023-05-06T08:45:36.507Z,48.92
2023-05-06T08:46:36.486Z,50.36
2023-05-06T08:47:36.491Z,51.72
2023-05-06T08:48:36.565Z,51.03
2023-05-06T08:49:36.457Z,49.59
2023-05-06T08:50:36.446Z,49.82
2023-05-06T08:51:36.440Z,49.53
2023-05-06T08:52:36.430Z,50.21
2023-05-06T08:53:36.421Z,52.50
2023-05-06T08:54:36.423Z,54.76
2023-05-06T08:55:36.399Z,54.47
2023-05-06T08:56:36.386Z,54.26
2023-05-06T08:57:36.388Z,53.13
2023-05-06T08:58:36.363Z,51.03
2023-05-06T08:59:36.390Z,51.98
2023-05-06T09:00:36.345Z,53.03
2023-05-06T09:01:36.530Z,51.82
2023-05-06T09:02:36.448Z,53.50
2023-05-06T09:03:36.336Z,54.08
2023-05-06T09:04:36.312Z,53.77
2023-05-06T09:05:36.323Z,51.95
2023-05-06T09:06:36.294Z,49.76
2023-05-06T09:07:36.270Z,49.10
2023-05-06T09:08:36.274Z,48.90
2023-05-06T09:09:36.292Z,51.28
2023-05-06T09:10:36.246Z,50.51
2023-05-06T09:11:36.243Z,50.69
2023-05-06T09:12:36.271Z,51.60
2023-05-06T09:13:36.217Z,52.43
2023-05-06T09:14:36.201Z,52.17
2023-05-06T09:15:36.218Z,54.12
2023-05-06T09:16:36.299Z,55.81
2023-05-06T09:17:36.299Z,57.49
2023-05-06T09:18:36.260Z,55.74
2023-05-06T09:19:36.165Z,52.96
2023-05-06T09:20:36.153Z,53.33
2023-05-06T09:21:36.154Z,53.23
2023-05-06T09:22:36.118Z,52.83
2023-05-06T09:23:36.136Z,52.96
2023-05-06T09:24:36.110Z,50.30
2023-05-06T09:25:36.105Z,51.44
2023-05-06T09:26:36.094Z,54.19
2023-05-06T09:27:36.096Z,58.49
2023-05-06T09:28:36.080Z,60.42
2023-05-06T09:29:36.049Z,58.57
2023-05-06T09:30:36.051Z,55.15
2023-05-06T09:31:36.148Z,53.13
2023-05-06T09:32:39.111Z,51.41
2023-05-06T09:33:36.018Z,51.28
2023-05-06T09:34:36.014Z,52.86
2023-05-06T09:35:35.999Z,54.79
2023-05-06T09:36:35.988Z,54.02
2023-05-06T09:37:36.440Z,53.43
2023-05-06T09:38:36.232Z,54.90
2023-05-06T09:39:35.960Z,55.85
2023-05-06T09:40:36.083Z,55.11
2023-05-06T09:41:35.924Z,54.58
2023-05-06T09:42:35.916Z,54.54
2023-05-06T09:43:35.904Z,54.19
2023-05-06T09:44:35.924Z,55.29
2023-05-06T09:45:35.922Z,54.22
2023-05-06T09:46:35.956Z,53.84
2023-05-06T09:47:35.912Z,55.40
2023-05-06T09:48:35.871Z,56.48
2023-05-06T09:49:35.846Z,58.04
2023-05-06T09:50:35.875Z,57.06
2023-05-06T09:51:35.820Z,60.47
2023-05-06T09:52:35.841Z,59.57
2023-05-06T09:53:35.808Z,56.22
2023-05-06T09:54:35.817Z,55.19
2023-05-06T09:55:35.811Z,55.74
2023-05-06T09:56:35.811Z,59.86
2023-05-06T09:57:35.836Z,61.75
2023-05-06T09:58:35.786Z,63.00
2023-05-06T09:59:35.786Z,61.57
2023-05-06T10:00:35.746Z,62.35
2023-05-06T10:01:37.579Z,61.21
2023-05-06T10:02:35.905Z,61.44
2023-05-06T10:03:35.886Z,61.26
2023-05-06T10:04:36.062Z,59.27
2023-05-06T10:05:35.784Z,57.61
2023-05-06T10:06:35.825Z,55.19
2023-05-06T10:07:35.743Z,56.90
2023-05-06T10:08:35.652Z,58.29
2023-05-06T10:09:35.708Z,61.66
2023-05-06T10:10:35.710Z,58.90
2023-05-06T10:11:35.634Z,55.48
2023-05-06T10:12:35.633Z,54.05
2023-05-06T10:13:35.619Z,56.90
2023-05-06T10:14:35.614Z,55.70
2023-05-06T10:15:35.619Z,55.40
2023-05-06T10:16:35.893Z,56.60
2023-05-06T10:17:35.646Z,56.60
2023-05-06T10:18:35.582Z,56.37
2023-05-06T10:19:35.621Z,54.51
2023-05-06T10:20:35.514Z,55.08
2023-05-06T10:21:35.514Z,60.86
2023-05-06T10:22:35.521Z,62.53
2023-05-06T10:23:35.493Z,61.57
2023-05-06T10:24:35.475Z,63.10
2023-05-06T10:25:35.501Z,62.86
2023-05-06T10:26:35.502Z,59.23
2023-05-06T10:27:35.474Z,59.31
2023-05-06T10:28:35.461Z,58.65
2023-05-06T10:29:35.451Z,58.61
2023-05-06T10:30:35.448Z,63.48
2023-05-06T10:31:35.589Z,68.27
2023-05-06T10:32:35.431Z,70.51
2023-05-06T10:33:35.435Z,67.29
2023-05-06T10:34:35.450Z,64.60
2023-05-06T10:35:35.361Z,65.92
2023-05-06T10:36:35.399Z,64.16
2023-05-06T10:37:35.346Z,65.97
2023-05-06T10:38:35.329Z,70.15
2023-05-06T10:39:35.349Z,68.05
2023-05-06T10:40:35.616Z,67.61
2023-05-06T10:41:35.351Z,68.61
2023-05-06T10:42:35.314Z,65.87
2023-05-06T10:43:35.280Z,63.10
2023-05-06T10:44:35.267Z,59.95
2023-05-06T10:45:35.270Z,64.21
2023-05-06T10:46:35.252Z,67.94
2023-05-06T10:47:35.303Z,68.05
2023-05-06T10:48:35.244Z,69.23
2023-05-06T10:49:35.216Z,68.61
2023-05-06T10:50:35.223Z,71.47
2023-05-06T10:51:35.200Z,71.77
2023-05-06T10:52:35.185Z,73.40
2023-05-06T10:53:35.163Z,70.80
2023-05-06T10:54:35.178Z,72.39
2023-05-06T10:55:35.171Z,72.96
2023-05-06T10:56:35.136Z,68.83
2023-05-06T10:57:35.323Z,68.33
2023-05-06T10:58:35.110Z,69.92
2023-05-06T10:59:35.139Z,69.17
2023-05-06T11:00:35.088Z,68.55
2023-05-06T11:01:35.348Z,70.68
2023-05-06T11:02:35.140Z,74.05
2023-05-06T11:03:35.126Z,75.92
2023-05-06T11:04:35.087Z,74.44
2023-05-06T11:05:35.064Z,75.31
2023-05-06T11:06:35.038Z,72.64
2023-05-06T11:07:35.186Z,74.18
2023-05-06T11:08:35.016Z,76.06
2023-05-06T11:09:35.075Z,79.81
2023-05-06T11:10:35.026Z,79.89
2023-05-06T11:11:35.054Z,79.59
2023-05-06T11:12:35.040Z,81.99
2023-05-06T11:13:34.987Z,82.47
2023-05-06T11:14:34.995Z,83.29
2023-05-06T11:15:34.945Z,87.09
2023-05-06T11:16:36.058Z,87.82
2023-05-06T11:17:35.016Z,91.65
2023-05-06T11:18:34.931Z,92.25
2023-05-06T11:19:34.911Z,88.00
2023-05-06T11:20:34.958Z,85.32
2023-05-06T11:21:34.955Z,81.20
2023-05-06T11:22:34.878Z,77.60
2023-05-06T11:23:34.868Z,75.58
2023-05-06T11:24:35.063Z,79.66
2023-05-06T11:25:34.834Z,78.91
2023-05-06T11:26:34.818Z,76.61
2023-05-06T11:27:34.816Z,75.85
2023-05-06T11:28:34.885Z,84.55
2023-05-06T11:29:34.823Z,86.91
2023-05-06T11:30:34.855Z,87.27
2023-05-06T11:31:34.969Z,84.21
2023-05-06T11:32:34.868Z,79.44
2023-05-06T11:33:34.801Z,79.21
2023-05-06T11:34:34.962Z,81.12
2023-05-06T11:35:34.769Z,86.11
2023-05-06T11:36:34.936Z,93.17
2023-05-06T11:37:34.806Z,91.85
2023-05-06T11:38:34.768Z,94.64
2023-05-06T11:39:39.954Z,94.08
2023-05-06T11:40:34.763Z,94.77
2023-05-06T11:41:34.682Z,99.13
2023-05-06T11:42:34.686Z,100.01
2023-05-06T11:43:34.644Z,98.84
2023-05-06T11:44:34.628Z,95.96
2023-05-06T11:45:34.646Z,96.79
2023-05-06T11:46:34.628Z,101.52
2023-05-06T11:47:34.687Z,97.24
2023-05-06T11:48:34.624Z,94.11
2023-05-06T11:49:36.241Z,92.15
2023-05-06T11:50:34.570Z,90.56
2023-05-06T11:51:34.554Z,93.90
2023-05-06T11:52:34.556Z,93.69
2023-05-06T11:53:34.543Z,91.25
2023-05-06T11:54:34.636Z,90.85
2023-05-06T11:55:34.513Z,93.90
2023-05-06T11:56:34.604Z,98.09
2023-05-06T11:57:34.527Z,100.43
2023-05-06T11:58:34.529Z,96.62
2023-05-06T11:59:34.503Z,92.56
2023-05-06T12:00:34.502Z,94.11
2023-05-06T12:01:34.461Z,92.15
2023-05-06T12:02:34.544Z,91.75
2023-05-06T12:03:34.659Z,85.76
2023-05-06T12:04:34.524Z,85.41
2023-05-06T12:05:34.537Z,87.18
2023-05-06T12:06:34.407Z,89.98
2023-05-06T12:07:34.426Z,91.15
2023-05-06T12:08:34.390Z,95.50
2023-05-06T12:09:34.431Z,93.17
2023-05-06T12:10:34.354Z,91.95
2023-05-06T12:11:34.383Z,93.07
2023-05-06T12:12:34.387Z,94.66
2023-05-06T12:13:34.344Z,97.18
2023-05-06T12:14:34.351Z,97.52
2023-05-06T12:15:34.314Z,95.53
2023-05-06T12:16:34.304Z,97.01
2023-05-06T12:17:34.311Z,99.31
2023-05-06T12:18:34.282Z,102.26
2023-05-06T12:19:34.279Z,103.14
2023-05-06T12:20:34.280Z,104.82
2023-05-06T12:21:34.287Z,100.97
2023-05-06T12:22:34.242Z,102.76
2023-05-06T12:26:55.380Z,90.07
2023-05-06T12:27:38.514Z,116.59
2023-05-06T12:28:38.331Z,128.93
2023-05-06T12:29:38.535Z,129.13
2023-05-06T12:30:38.319Z,119.75
2023-05-06T12:31:38.342Z,118.07
2023-05-06T12:32:38.339Z,118.23
2023-05-06T12:33:38.296Z,115.87
2023-05-06T12:34:38.296Z,112.83
2023-05-06T12:35:38.264Z,112.76
2023-05-06T12:36:38.245Z,109.31
2023-05-06T12:37:38.265Z,112.38
2023-05-06T12:38:38.235Z,108.47
2023-05-06T12:39:38.236Z,103.65
2023-05-06T12:40:38.210Z,106.07
2023-05-06T12:41:38.215Z,110.54
2023-05-06T12:42:38.185Z,108.40
2023-05-06T12:43:38.168Z,110.54
2023-05-06T12:44:38.172Z,106.54
2023-05-06T12:45:38.240Z,104.56
2023-05-06T12:46:38.143Z,109.24
2023-05-06T12:47:38.208Z,110.97
2023-05-06T12:48:38.154Z,106.88
2023-05-06T12:49:38.105Z,106.68
2023-05-06T12:50:38.091Z,107.36
2023-05-06T12:51:38.079Z,105.74
2023-05-06T12:52:38.075Z,103.91
2023-05-06T12:53:38.064Z,100.07
2023-05-06T12:54:38.092Z,99.07